KASH

Boire Field Airport

Nashua, New Hampshire, USA
METAR KASH 280056Z 07007KT 10SM -RA BKN016 OVC039 11/08 A3021 RMK AO2 SLP241 P0000 T01060083
Observed Flight Rules
May-28 @ 00:56 UTC (6 minutes ago) Marginal Visual Flight Rules
Wind Visibility Clouds Conditions
70° at 7 knots 10 miles
  • Broken at 1,600' AGL
  • Overcast at 3,900' AGL
  • Light Rain
Temperatures Readings Precipitation
Current 11°C / 52°F
Dewpoint 8°C / 46°F
Humidity 82%
Altimeter 30.21" Hg
Pressure 1024.1 hPa
Elevation 61
Current Rain 0.005
METAR KASH 280056Z 07007KT 10SM -RA BKN016 OVC039 11/08 A3021 RMK AO2 SLP241 P0000 T01060083
Observed Flight Rules
May-28 @ 00:56 UTC
(6 minutes ago)
MVFR
Wind Visibility
70° at 7 knots 10 miles
Clouds
  • Broken at 1,600' AGL
  • Overcast at 3,900' AGL
Conditions
  • Light Rain
Temperature Dewpoint
11°C / 52°F 8°C / 46°F
Humidity Altimeter Pressure
82% 30.21" Hg 1024.1 hPa
Current Rain
0.005